Time;durP1;ratioP1;P1;durP2;ratioP2;P2;SDS_P1;SDS_P2;PMS_P1;PMS_P2;Temp;Humidity;BMP_temperature;BMP_pressure;BME280_temperature;BME280_humidity;BME280_pressure;Samples;Min_cycle;Max_cycle;Signal;HPM_P1;HPM_P2
2023/05/12 00:01:48;;;;;;;5.70;5.20;;;;;;;12.41;100.00;95282.91;4992375;28;20211;-91
2023/05/12 00:36:06;;;;;;;8.50;7.70;;;;;;;12.30;100.00;95273.16;5610423;23;20177;-90
2023/05/12 00:38:43;;;;;;;8.23;7.43;;;;;;;12.31;100.00;95274.75;5005003;28;20306;-90
2023/05/12 00:41:10;;;;;;;7.70;7.00;;;;;;;12.36;100.00;95274.13;5004457;28;20281;-91
2023/05/12 00:43:42;;;;;;;7.73;6.40;;;;;;;12.36;100.00;95264.59;4991640;28;20238;-90
2023/05/12 00:46:09;;;;;;;6.00;5.40;;;;;;;12.36;100.00;95267.19;4991949;28;20913;-90
2023/05/12 00:48:36;;;;;;;6.03;5.53;;;;;;;12.36;100.00;95266.41;5006975;28;20715;-90
2023/05/12 00:51:13;;;;;;;4.77;4.37;;;;;;;12.33;100.00;95262.41;4995957;28;20242;-91
2023/05/12 00:53:43;;;;;;;4.77;4.37;;;;;;;12.31;100.00;95261.84;5010948;28;20194;-91
2023/05/12 00:56:20;;;;;;;5.03;4.63;;;;;;;12.28;100.00;95259.66;4993253;28;20601;-90
2023/05/12 00:58:54;;;;;;;4.97;4.57;;;;;;;12.29;100.00;95265.59;4993247;28;20293;-90
2023/05/12 01:01:20;;;;;;;6.20;5.60;;;;;;;12.23;100.00;95264.59;4992280;28;20200;-91
2023/05/12 01:06:42;;;;;;;5.97;5.47;;;;;;;12.30;100.00;95264.63;4990378;28;20219;-91
2023/05/12 01:09:11;;;;;;;5.70;5.20;;;;;;;12.32;100.00;95262.59;4999144;28;20218;-91
2023/05/12 01:11:41;;;;;;;4.77;4.37;;;;;;;12.29;100.00;95261.25;4991692;28;20195;-90
2023/05/12 01:14:16;;;;;;;5.67;5.20;;;;;;;12.33;100.00;95261.63;4992972;28;20214;-91
2023/05/12 01:16:53;;;;;;;6.00;5.50;;;;;;;12.32;100.00;95263.41;4973675;28;20569;-90
2023/05/12 01:19:41;;;;;;;6.07;5.57;;;;;;;12.36;100.00;95261.22;4972994;28;20256;-91
2023/05/12 01:22:18;;;;;;;6.10;5.60;;;;;;;12.39;100.00;95259.06;4973952;28;20587;-91
2023/05/12 01:24:48;;;;;;;5.50;5.00;;;;;;;12.25;100.00;95261.81;4974140;28;20284;-92
2023/05/12 01:27:17;;;;;;;5.47;4.97;;;;;;;12.10;100.00;95264.56;4998565;28;20261;-90
2023/05/12 01:29:46;;;;;;;5.13;4.70;;;;;;;12.11;100.00;95255.81;5011031;28;20218;-91
2023/05/12 01:32:39;;;;;;;5.30;4.90;;;;;;;12.16;100.00;95252.63;5013931;28;20191;-91
2023/05/12 01:35:13;;;;;;;6.93;6.00;;;;;;;12.09;100.00;95260.38;4999113;28;20227;-90
2023/05/12 01:37:53;;;;;;;;;;;;;;;;;;;;;
2023/05/12 01:43:02;;;;;;;5.70;5.03;;;;;;;11.75;100.00;95251.66;5005857;28;20198;-90
2023/05/12 01:45:30;;;;;;;5.37;4.87;;;;;;;11.84;100.00;95252.34;5013185;28;20195;-90
2023/05/12 01:50:55;;;;;;;4.47;4.07;;;;;;;12.00;100.00;95259.75;4995267;28;20722;-91
2023/05/12 01:53:23;;;;;;;5.00;4.60;;;;;;;12.04;100.00;95258.38;4995178;28;20203;-90
2023/05/12 01:55:51;;;;;;;4.20;3.80;;;;;;;12.09;100.00;95260.38;4994530;28;20836;-90
2023/05/12 01:58:36;;;;;;;4.50;4.10;;;;;;;12.13;100.00;95263.34;5008470;28;20203;-91
2023/05/12 02:01:03;;;;;;;4.90;4.50;;;;;;;12.18;100.00;95255.81;5002274;28;20270;-90
2023/05/12 02:03:30;;;;;;;6.27;5.67;;;;;;;12.17;100.00;95256.81;4993445;28;20218;-91
2023/05/12 02:05:56;;;;;;;5.73;5.23;;;;;;;12.20;100.00;95261.59;5001939;28;20261;-91
2023/05/12 02:08:37;;;;;;;5.50;5.00;;;;;;;12.24;100.00;95255.06;5000251;28;20222;-90
2023/05/12 02:11:06;;;;;;;5.20;4.80;;;;;;;12.27;100.00;95246.94;5003939;28;20233;-91
2023/05/12 02:13:33;;;;;;;5.00;4.50;;;;;;;12.21;100.00;95245.91;4992551;28;20195;-91
2023/05/12 02:16:01;;;;;;;4.20;3.90;;;;;;;12.26;100.00;95253.88;4992097;28;20202;-90
2023/05/12 02:18:42;;;;;;;3.80;3.50;;;;;;;12.30;100.00;95256.88;5005287;28;20198;-93
2023/05/12 02:21:08;;;;;;;4.00;2.93;;;;;;;12.29;100.00;95258.66;5010672;28;20229;-91
2023/05/12 02:23:35;;;;;;;3.47;3.00;;;;;;;12.28;100.00;95246.75;5012370;28;20221;-91
2023/05/12 02:26:01;;;;;;;2.80;2.60;;;;;;;12.30;100.00;95249.91;5011907;28;20222;-91
2023/05/12 02:28:38;;;;;;;2.50;2.30;;;;;;;12.34;100.00;95251.09;4998565;28;20241;-90
2023/05/12 02:31:41;;;;;;;2.63;2.43;;;;;;;12.35;100.00;95255.28;4994462;28;20758;-91
2023/05/12 02:34:09;;;;;;;2.77;2.57;;;;;;;12.30;100.00;95242.19;4971303;28;20701;-91
2023/05/12 02:36:36;;;;;;;3.00;2.80;;;;;;;12.30;100.00;95241.38;4973311;28;20222;-91
2023/05/12 02:39:03;;;;;;;2.93;2.73;;;;;;;12.27;100.00;95242.56;5006627;28;20198;-90
2023/05/12 02:41:30;;;;;;;3.10;2.80;;;;;;;12.22;100.00;95246.72;4991787;28;20207;-91
2023/05/12 02:44:01;;;;;;;3.03;2.83;;;;;;;12.13;100.00;95251.25;4990185;28;20607;-91
2023/05/12 02:46:28;;;;;;;3.33;3.03;;;;;;;12.15;100.00;95249.25;4991938;28;20199;-91
2023/05/12 02:48:55;;;;;;;3.27;2.97;;;;;;;12.13;100.00;95248.66;4995178;28;20226;-90
2023/05/12 02:51:22;;;;;;;4.13;2.80;;;;;;;12.16;100.00;95252.63;4991426;28;20207;-92
2023/05/12 02:53:49;;;;;;;2.40;2.20;;;;;;;12.18;100.00;95254.03;4998986;28;20561;-91
2023/05/12 02:56:26;;;;;;;2.60;2.40;;;;;;;12.20;100.00;95249.47;5010997;28;20203;-90
2023/05/12 02:58:53;;;;;;;2.40;2.20;;;;;;;12.24;100.00;95253.28;5008606;28;20194;-91
2023/05/12 03:01:20;;;;;;;2.20;2.07;;;;;;;12.28;100.00;95251.09;4995103;28;20211;-91
2023/05/12 03:03:46;;;;;;;2.33;2.13;;;;;;;12.24;100.00;95255.84;5010763;28;20198;-92
2023/05/12 03:06:14;;;;;;;3.93;2.10;;;;;;;12.24;100.00;95253.28;4997056;28;20202;-90
2023/05/12 03:08:42;;;;;;;2.70;2.50;;;;;;;12.12;100.00;95252.25;4993290;28;20230;-90
2023/05/12 03:11:09;;;;;;;2.00;1.90;;;;;;;12.07;100.00;95249.44;4991116;28;20313;-91
2023/05/12 03:13:35;;;;;;;1.90;1.80;;;;;;;12.04;100.00;95257.56;4991441;28;20584;-90
2023/05/12 03:16:01;;;;;;;3.57;1.90;;;;;;;12.00;100.00;95256.38;4990966;28;20207;-91
2023/05/12 03:18:28;;;;;;;2.07;1.97;;;;;;;12.01;100.00;95255.38;4995018;28;20207;-91
2023/05/12 03:20:55;;;;;;;1.80;1.70;;;;;;;12.04;100.00;95255.78;5006322;28;20222;-90
2023/05/12 03:23:21;;;;;;;2.13;2.03;;;;;;;12.08;100.00;95262.16;5010764;28;20230;-91
2023/05/12 03:25:50;;;;;;;2.27;2.10;;;;;;;12.12;100.00;95264.38;5007191;28;20210;-91
2023/05/12 03:28:17;;;;;;;2.50;2.30;;;;;;;12.14;100.00;95259.78;4991391;28;20222;-90
2023/05/12 03:30:43;;;;;;;2.60;2.40;;;;;;;12.17;100.00;95265.34;4990784;28;20231;-91
2023/05/12 03:33:10;;;;;;;3.43;2.20;;;;;;;12.15;100.00;95259.59;4991014;28;20207;-90
2023/05/12 03:35:36;;;;;;;2.63;2.30;;;;;;;12.14;100.00;95255.41;4991107;28;20204;-90
2023/05/12 03:38:03;;;;;;;3.17;2.40;;;;;;;12.14;100.00;95257.19;5003211;28;20213;-91
2023/05/12 03:40:29;;;;;;;2.43;2.23;;;;;;;12.14;100.00;95258.00;5012133;28;20231;-92
2023/05/12 03:42:59;;;;;;;1.97;1.87;;;;;;;12.14;100.00;95265.72;5011648;28;20199;-91
2023/05/12 03:45:25;;;;;;;2.00;1.90;;;;;;;12.16;100.00;95266.34;4995774;28;20227;-91
2023/05/12 03:47:56;;;;;;;1.80;1.70;;;;;;;12.16;100.00;95258.59;5001156;28;20214;-91
2023/05/12 03:50:23;;;;;;;1.90;1.80;;;;;;;12.16;100.00;95262.97;5015332;28;20724;-90
2023/05/12 03:52:54;;;;;;;1.87;1.70;;;;;;;12.16;100.00;95250.06;5010816;28;20198;-91
2023/05/12 03:55:32;;;;;;;1.97;1.87;;;;;;;12.15;100.00;95251.03;4996376;28;20203;-91
2023/05/12 03:58:00;;;;;;;2.30;2.10;;;;;;;12.16;100.00;95253.44;4995229;28;20205;-91
2023/05/12 04:00:31;;;;;;;1.93;1.73;;;;;;;12.18;100.00;95255.81;4991227;28;20577;-90
2023/05/12 04:02:57;;;;;;;2.10;2.00;;;;;;;12.19;100.00;95258.22;4990103;28;20890;-90
2023/05/12 04:05:31;;;;;;;1.97;1.60;;;;;;;12.18;100.00;95263.56;4991847;28;20203;-90
2023/05/12 04:08:02;;;;;;;1.77;1.63;;;;;;;12.17;100.00;95259.41;5000894;28;20193;-90
2023/05/12 04:10:28;;;;;;;1.70;1.60;;;;;;;12.16;100.00;95255.22;4996448;28;20235;-91
2023/05/12 04:12:55;;;;;;;1.63;1.50;;;;;;;12.16;100.00;95257.81;5002108;28;20195;-90
2023/05/12 04:15:31;;;;;;;1.70;1.60;;;;;;;12.16;100.00;95258.59;5010249;28;20209;-90
2023/05/12 04:17:57;;;;;;;1.60;1.50;;;;;;;12.13;100.00;95260.75;5003595;28;20187;-90
2023/05/12 04:20:27;;;;;;;1.40;1.30;;;;;;;12.12;100.00;95264.38;4990893;28;20230;-90
2023/05/12 04:22:56;;;;;;;1.30;1.20;;;;;;;12.11;100.00;95258.41;4988938;28;20213;-90
2023/05/12 04:25:22;;;;;;;1.30;1.20;;;;;;;12.10;100.00;95270.50;5002082;28;20891;-90
2023/05/12 04:27:57;;;;;;;1.10;1.00;;;;;;;12.09;100.00;95263.75;5002299;28;20294;-91
2023/05/12 04:30:25;;;;;;;1.10;1.00;;;;;;;12.10;100.00;95272.28;5006920;28;20302;-90
2023/05/12 04:32:51;;;;;;;1.00;1.00;;;;;;;12.10;100.00;95273.09;5008761;28;20202;-90
2023/05/12 04:35:22;;;;;;;1.43;1.10;;;;;;;12.14;100.00;95273.47;5009134;28;20202;-90
2023/05/12 04:38:00;;;;;;;0.93;0.90;;;;;;;12.16;100.00;95265.53;5009094;28;20210;-90
2023/05/12 04:40:29;;;;;;;1.47;1.37;;;;;;;12.13;100.00;95274.47;5005412;28;20223;-91
2023/05/12 04:42:56;;;;;;;1.43;1.20;;;;;;;12.07;100.00;95270.09;4989963;28;20254;-90
2023/05/12 04:45:22;;;;;;;1.47;1.37;;;;;;;12.09;100.00;95274.09;4989924;28;20199;-91
2023/05/12 04:47:52;;;;;;;1.10;1.00;;;;;;;12.07;100.00;95273.47;4989598;28;20279;-90
2023/05/12 04:50:19;;;;;;;1.30;1.20;;;;;;;12.06;100.00;95276.25;4990151;28;20310;-90
2023/05/12 04:55:38;;;;;;;1.43;1.33;;;;;;;12.09;100.00;95275.88;4982492;28;20196;-90
2023/05/12 04:58:04;;;;;;;1.60;1.50;;;;;;;12.12;100.00;95279.84;4988395;28;20196;-89
2023/05/12 05:00:31;;;;;;;1.53;1.30;;;;;;;12.12;100.00;95288.38;4990537;28;20653;-91
2023/05/12 05:03:09;;;;;;;1.30;1.20;;;;;;;12.15;100.00;95287.19;4990718;28;20227;-90
2023/05/12 05:05:36;;;;;;;1.60;1.50;;;;;;;12.18;100.00;95286.78;4991563;28;20226;-90
2023/05/12 05:08:02;;;;;;;1.80;1.70;;;;;;;12.13;100.00;95289.16;4994511;28;20207;-90
2023/05/12 05:10:29;;;;;;;1.77;1.67;;;;;;;12.17;100.00;95293.75;4981865;28;20224;-91
2023/05/12 05:13:12;;;;;;;1.90;1.77;;;;;;;12.21;100.00;95291.56;4990729;28;20608;-90
2023/05/12 05:15:38;;;;;;;12.43;5.13;;;;;;;12.21;100.00;95289.78;4994986;28;20836;-90
2023/05/12 05:18:06;;;;;;;4.07;3.67;;;;;;;12.29;100.00;95289.63;4994525;28;20218;-90
2023/05/12 05:20:33;;;;;;;77.63;61.47;;;;;;;12.31;100.00;95295.41;4994697;28;20250;-90
2023/05/12 05:23:08;;;;;;;9.93;8.90;;;;;;;12.34;100.00;95294.97;4993638;28;20685;-90
2023/05/12 05:25:34;;;;;;;4.30;3.90;;;;;;;12.41;100.00;95290.66;4992673;28;20249;-89
2023/05/12 05:28:03;;;;;;;5.00;3.53;;;;;;;12.40;100.00;95293.44;4993028;28;20349;-90
2023/05/12 05:30:30;;;;;;;6.57;4.00;;;;;;;12.43;100.00;95293.03;4995063;28;20223;-89
2023/05/12 05:32:57;;;;;;;5.10;3.70;;;;;;;12.48;100.00;95302.78;4993539;28;20235;-91
2023/05/12 05:35:41;;;;;;;6.27;4.33;;;;;;;12.53;100.00;95302.97;4994290;28;20207;-90
2023/05/12 05:38:07;;;;;;;20.80;18.17;;;;;;;12.59;100.00;95303.00;4993506;28;20261;-90
2023/05/12 05:40:34;;;;;;;9.20;8.27;;;;;;;12.63;100.00;95301.63;4992944;28;20221;-90
2023/05/12 05:43:01;;;;;;;6.87;4.60;;;;;;;12.63;100.00;95300.84;4994062;28;20204;-90
2023/05/12 05:48:08;;;;;;;4.83;4.43;;;;;;;12.57;100.00;95297.22;4992026;28;20202;-90
2023/05/12 05:50:36;;;;;;;4.90;4.50;;;;;;;12.62;100.00;95302.63;4993831;28;20226;-90
2023/05/12 05:53:03;;;;;;;4.80;4.40;;;;;;;12.65;100.00;95307.41;4993775;28;20214;-89
2023/05/12 05:55:34;;;;;;;8.43;5.80;;;;;;;12.59;100.00;95305.59;4994103;28;20221;-90
2023/05/12 05:58:01;;;;;;;5.97;4.90;;;;;;;12.61;100.00;95301.03;4993704;28;20380;-90
2023/05/12 06:00:27;;;;;;;5.37;4.87;;;;;;;12.68;100.00;95309.59;4991656;28;20211;-90
2023/05/12 06:02:54;;;;;;;8.23;7.47;;;;;;;12.70;100.00;95307.59;4991160;28;20199;-89
2023/05/12 06:05:20;;;;;;;5.50;5.00;;;;;;;12.65;100.00;95306.59;4991438;28;20286;-90
2023/05/12 06:07:51;;;;;;;5.60;5.10;;;;;;;12.64;100.00;95307.59;4991436;28;20215;-89
2023/05/12 06:10:24;;;;;;;4.90;4.50;;;;;;;12.72;100.00;95304.81;4979460;28;20228;-90
2023/05/12 06:12:50;;;;;;;4.80;4.40;;;;;;;12.75;100.00;95305.22;4987099;28;20250;-89
2023/05/12 06:15:17;;;;;;;4.47;4.07;;;;;;;12.76;100.00;95304.22;4991432;28;20231;-90
2023/05/12 06:17:43;;;;;;;4.20;3.90;;;;;;;12.74;100.00;95305.41;4991273;28;20203;-90
2023/05/12 06:20:12;;;;;;;4.60;4.20;;;;;;;12.71;100.00;95308.38;4991776;28;20223;-90
2023/05/12 06:22:43;;;;;;;4.30;3.93;;;;;;;12.75;100.00;95309.59;4991586;28;20239;-90
2023/05/12 06:25:11;;;;;;;4.63;4.23;;;;;;;12.82;100.00;95312.97;4991142;28;20840;-91
2023/05/12 06:27:37;;;;;;;4.43;4.10;;;;;;;12.82;100.00;95312.19;4993624;28;20199;-90
2023/05/12 06:30:04;;;;;;;7.37;6.67;;;;;;;12.73;100.00;95317.53;4991417;28;20223;-89
2023/05/12 06:32:31;;;;;;;7.13;6.03;;;;;;;12.64;100.00;95323.09;4991614;28;20688;-90
2023/05/12 06:34:58;;;;;;;6.73;6.13;;;;;;;12.61;100.00;95319.09;4991504;28;20199;-90
2023/05/12 06:37:31;;;;;;;5.90;5.40;;;;;;;12.65;100.00;95317.72;4991601;28;20261;-90
2023/05/12 06:39:57;;;;;;;4.73;4.17;;;;;;;12.64;100.00;95320.50;4991949;28;20227;-90
2023/05/12 06:42:25;;;;;;;4.90;4.50;;;;;;;12.67;100.00;95320.91;4991723;28;20200;-90
2023/05/12 06:44:52;;;;;;;5.00;4.60;;;;;;;12.73;100.00;95329.66;4991790;28;20206;-90
2023/05/12 06:47:18;;;;;;;5.60;5.10;;;;;;;12.79;100.00;95327.09;4991200;28;20200;-90
2023/05/12 06:49:55;;;;;;;;;;;;;;;;;;;;;
2023/05/12 06:52:22;;;;;;;4.70;4.30;;;;;;;12.75;100.00;95325.09;4991446;28;20239;-90
2023/05/12 06:54:49;;;;;;;5.27;4.87;;;;;;;12.75;100.00;95325.88;4991750;28;20208;-90
2023/05/12 06:57:15;;;;;;;5.20;4.70;;;;;;;12.74;100.00;95329.47;4991433;28;20210;-90
2023/05/12 06:59:43;;;;;;;6.70;4.90;;;;;;;12.70;100.00;95322.31;4991090;28;20223;-90
2023/05/12 07:02:10;;;;;;;5.57;4.90;;;;;;;12.71;100.00;95324.69;4992625;28;20214;-90
2023/05/12 07:04:40;;;;;;;5.60;5.10;;;;;;;12.66;100.00;95319.31;4992557;28;20203;-90
2023/05/12 07:07:06;;;;;;;5.23;4.83;;;;;;;12.62;100.00;95322.47;4993489;28;20207;-90
2023/05/12 07:09:32;;;;;;;5.40;4.90;;;;;;;12.65;100.00;95324.69;4989552;28;20226;-90
2023/05/12 07:12:00;;;;;;;5.20;4.70;;;;;;;12.65;100.00;95330.66;4987084;28;20212;-89
2023/05/12 07:14:26;;;;;;;5.60;5.10;;;;;;;12.67;100.00;95331.25;4994530;28;20227;-90
2023/05/12 07:16:54;;;;;;;6.00;5.40;;;;;;;12.61;100.00;95333.81;4991366;28;20209;-90
2023/05/12 07:19:30;;;;;;;6.03;5.23;;;;;;;12.62;100.00;95328.44;4992103;28;20220;-90
2023/05/12 07:21:57;;;;;;;6.43;5.70;;;;;;;12.65;100.00;95329.84;4991283;28;20206;-91
2023/05/12 07:24:24;;;;;;;5.63;5.13;;;;;;;12.75;100.00;95325.09;4992776;28;20261;-90
2023/05/12 07:26:50;;;;;;;5.73;5.13;;;;;;;12.80;100.00;95323.50;4993076;28;20206;-90
2023/05/12 07:29:18;;;;;;;6.60;6.00;;;;;;;12.82;100.00;95325.09;4992396;28;20605;-90
2023/05/12 07:31:51;;;;;;;6.97;5.80;;;;;;;12.85;100.00;95327.31;4990550;28;20256;-91
2023/05/12 07:34:20;;;;;;;6.90;5.17;;;;;;;12.80;100.00;95322.72;4991634;28;20208;-91
2023/05/12 07:36:46;;;;;;;5.43;4.93;;;;;;;12.91;100.00;95323.91;4991292;28;20215;-90
2023/05/12 07:39:13;;;;;;;5.13;4.63;;;;;;;12.96;100.00;95324.91;4991623;28;20208;-90
2023/05/12 07:41:41;;;;;;;6.00;5.40;;;;;;;12.99;100.00;95331.50;4991399;28;20234;-90
2023/05/12 07:44:17;;;;;;;7.13;5.70;;;;;;;13.04;100.00;95324.75;4990388;28;20214;-90
2023/05/12 07:46:43;;;;;;;7.07;6.37;;;;;;;13.09;100.00;95329.28;4992134;28;20198;-90
2023/05/12 07:49:10;;;;;;;5.80;5.30;;;;;;;13.13;100.00;95330.50;4989937;28;20727;-90
2023/05/12 07:51:38;;;;;;;5.90;5.30;;;;;;;13.15;100.00;95331.13;4990341;28;20240;-90
2023/05/12 07:54:06;;;;;;;5.50;5.00;;;;;;;13.17;100.00;95330.94;4991602;28;20199;-90
2023/05/12 07:56:39;;;;;;;5.13;4.73;;;;;;;13.17;100.00;95329.16;4991239;28;20204;-90
2023/05/12 07:59:06;;;;;;;5.20;4.70;;;;;;;13.19;99.68;95323.78;4989621;28;20227;-90
2023/05/12 08:01:33;;;;;;;6.30;4.60;;;;;;;13.18;98.94;95324.78;4988713;28;20207;-92
2023/05/12 08:04:05;;;;;;;6.00;5.50;;;;;;;13.19;99.68;95334.91;4989290;28;20211;-90
2023/05/12 08:06:32;;;;;;;5.50;5.00;;;;;;;13.21;100.00;95325.19;4989608;28;20206;-90
2023/05/12 08:09:25;;;;;;;5.17;4.77;;;;;;;13.22;99.67;95334.53;4988136;28;20792;-89
2023/05/12 08:12:08;;;;;;;5.33;4.93;;;;;;;13.16;100.00;95319.78;4988510;28;20282;-91
2023/05/12 08:14:35;;;;;;;5.80;5.30;;;;;;;13.20;99.94;95325.38;4988150;28;20212;-90
2023/05/12 08:17:03;;;;;;;5.90;5.30;;;;;;;13.24;99.90;95334.31;4976384;28;20654;-90
2023/05/12 08:19:42;;;;;;;5.90;5.40;;;;;;;13.28;100.00;95330.31;4986931;28;20282;-90
2023/05/12 08:22:09;;;;;;;6.63;5.50;;;;;;;13.31;100.00;95322.97;4988183;28;20234;-90
2023/05/12 08:24:40;;;;;;;6.47;5.87;;;;;;;13.34;100.00;95335.50;4988641;28;20227;-90
2023/05/12 08:27:22;;;;;;;;;;;;;;;;;;;;;
2023/05/12 08:30:01;;;;;;;6.47;5.87;;;;;;;13.40;100.00;95331.34;4968660;28;20224;-89
2023/05/12 08:32:27;;;;;;;6.47;5.87;;;;;;;13.33;96.66;95333.91;4969301;28;20282;-89
2023/05/12 08:35:00;;;;;;;8.77;6.10;;;;;;;13.20;98.77;95327.97;4974682;28;20207;-90
2023/05/12 08:37:26;;;;;;;6.47;5.87;;;;;;;13.21;99.88;95335.50;4988324;28;20215;-89
2023/05/12 08:39:57;;;;;;;7.00;5.70;;;;;;;13.25;100.00;95338.50;4988610;28;20253;-90
2023/05/12 08:42:35;;;;;;;6.57;5.97;;;;;;;13.31;100.00;95335.91;4990968;28;20641;-89
2023/05/12 08:45:05;;;;;;;5.90;5.40;;;;;;;13.37;100.00;95331.72;4992067;28;20269;-90
2023/05/12 08:47:33;;;;;;;5.40;4.90;;;;;;;13.41;99.06;95333.72;4992703;28;20262;-90
2023/05/12 08:50:07;;;;;;;6.53;5.93;;;;;;;13.43;97.67;95330.94;4992300;28;20231;-90
2023/05/12 08:52:47;;;;;;;5.47;4.97;;;;;;;13.47;97.79;95339.88;4992347;28;20199;-90
2023/05/12 08:55:28;;;;;;;5.73;5.23;;;;;;;13.47;98.40;95338.06;4992175;28;20257;-89
2023/05/12 08:58:02;;;;;;;5.90;5.40;;;;;;;13.48;98.90;95339.66;4992176;28;20210;-90
2023/05/12 09:00:42;;;;;;;6.20;5.60;;;;;;;13.42;99.75;95339.69;4992118;28;20291;-89
2023/05/12 09:03:29;;;;;;;5.93;5.33;;;;;;;13.43;100.00;95338.69;4991384;28;20203;-90
2023/05/12 09:05:58;;;;;;;6.60;6.00;;;;;;;13.47;99.38;95339.88;4992708;28;20422;-90
2023/05/12 09:08:35;;;;;;;6.43;5.83;;;;;;;13.50;99.69;95334.28;4992343;28;20196;-89
2023/05/12 09:11:03;;;;;;;5.80;5.30;;;;;;;13.46;99.66;95336.50;4991756;28;20227;-89
2023/05/12 09:13:47;;;;;;;6.70;5.80;;;;;;;13.49;99.29;95333.50;4991907;28;20211;-88
2023/05/12 09:16:24;;;;;;;6.20;5.60;;;;;;;13.49;99.70;95341.25;4992383;28;20199;-89
2023/05/12 09:18:55;;;;;;;6.50;5.90;;;;;;;13.49;100.00;95341.25;4991874;28;20212;-89
2023/05/12 09:21:26;;;;;;;6.83;5.47;;;;;;;13.49;100.00;95345.63;4991195;28;20219;-89
2023/05/12 09:24:04;;;;;;;6.33;5.70;;;;;;;13.51;100.00;95346.25;4991554;28;20191;-91
2023/05/12 09:29:58;;;;;;;7.97;6.93;;;;;;;13.35;100.00;95339.69;4991656;28;20262;-90
2023/05/12 09:32:37;;;;;;;7.87;6.87;;;;;;;13.34;100.00;95339.88;4991590;28;20203;-90
2023/05/12 09:35:07;;;;;;;6.80;6.07;;;;;;;13.49;100.00;95343.06;4991817;28;20712;-90
2023/05/12 09:37:39;;;;;;;6.97;6.27;;;;;;;13.62;100.00;95337.88;4991932;28;20208;-90
2023/05/12 09:42:46;;;;;;;6.93;6.23;;;;;;;13.89;99.93;95341.19;5224001;23;20242;-89
2023/05/12 09:45:54;;;;;;;6.43;5.83;;;;;;;13.96;98.99;95336.03;5011261;28;20903;-90
2023/05/12 09:48:26;;;;;;;7.60;6.80;;;;;;;14.00;97.04;95344.97;5011459;28;20249;-89
2023/05/12 09:50:56;;;;;;;7.23;6.50;;;;;;;13.89;97.41;95341.19;5010872;28;20227;-89
2023/05/12 09:53:23;;;;;;;5.90;5.40;;;;;;;13.92;97.71;95337.41;5010122;28;20233;-89
2023/05/12 09:55:58;;;;;;;6.37;5.27;;;;;;;13.89;98.41;95337.81;5010792;28;20199;-90
2023/05/12 09:58:27;;;;;;;5.30;4.90;;;;;;;13.83;98.54;95339.44;5011217;28;20671;-89
2023/05/12 10:01:02;;;;;;;5.33;4.83;;;;;;;13.77;95.19;95335.88;5010327;28;20246;-89
2023/05/12 10:03:37;;;;;;;5.30;4.87;;;;;;;13.64;94.33;95332.50;5010157;28;20289;-89
2023/05/12 10:06:11;;;;;;;5.20;4.67;;;;;;;13.61;94.39;95338.09;5011270;28;20272;-90
2023/05/12 10:08:46;;;;;;;6.27;4.97;;;;;;;13.60;94.01;95344.25;5011147;28;20260;-90
2023/05/12 10:11:16;;;;;;;5.20;4.80;;;;;;;13.62;94.36;95331.91;4993535;28;20677;-90
2023/05/12 10:13:44;;;;;;;4.83;4.43;;;;;;;13.61;93.57;95338.09;5011483;28;20206;-90
2023/05/12 10:16:18;;;;;;;8.37;5.53;;;;;;;13.56;92.10;95341.28;5010942;28;20191;-90
2023/05/12 10:18:54;;;;;;;5.90;5.43;;;;;;;13.54;91.72;95340.66;5013897;28;20694;-90
2023/05/12 10:21:27;;;;;;;6.30;5.53;;;;;;;13.44;90.54;95340.28;5010233;28;20245;-90
2023/05/12 10:23:54;;;;;;;6.07;5.47;;;;;;;13.49;91.94;95346.44;5010240;28;20214;-90
2023/05/12 10:26:23;;;;;;;4.77;4.37;;;;;;;13.48;92.00;95351.81;5010467;28;20210;-90
2023/05/12 10:28:59;;;;;;;5.00;4.60;;;;;;;13.46;91.83;95346.06;5009150;28;20216;-90
2023/05/12 10:31:41;;;;;;;;;;;;;;;;;;;;;
2023/05/12 10:34:07;;;;;;;5.73;4.60;;;;;;;13.52;91.62;95353.00;5006162;28;20206;-91
2023/05/12 10:36:57;;;;;;;4.10;3.80;;;;;;;13.57;89.58;95348.03;5005525;28;20262;-91
2023/05/12 10:39:45;;;;;;;4.40;4.00;;;;;;;13.59;88.39;95347.84;5006799;28;20227;-90
2023/05/12 10:42:14;;;;;;;4.57;4.17;;;;;;;13.64;88.05;95348.03;5006479;28;20219;-90
2023/05/12 10:45:06;;;;;;;4.60;4.20;;;;;;;13.64;86.91;95346.25;5008089;28;20242;-91
2023/05/12 10:47:45;;;;;;;5.23;4.83;;;;;;;13.71;88.25;95352.19;5009222;28;20744;-91
2023/05/12 10:50:35;;;;;;;5.50;5.00;;;;;;;13.79;87.70;95349.41;5009863;28;20233;-91
2023/05/12 10:53:01;;;;;;;5.10;4.60;;;;;;;13.80;87.27;95348.41;5010276;28;20203;-90
2023/05/12 10:55:33;;;;;;;5.47;4.97;;;;;;;13.93;88.19;95351.94;5010087;28;20205;-90
2023/05/12 10:58:13;;;;;;;10.13;7.63;;;;;;;13.96;88.05;95348.97;5007218;28;20213;-90
2023/05/12 11:00:53;;;;;;;10.10;8.23;;;;;;;14.03;88.17;95342.78;5008389;28;20305;-90
2023/05/12 11:03:24;;;;;;;8.13;6.50;;;;;;;14.10;87.76;95355.69;4989067;28;20564;-89
2023/05/12 11:06:04;;;;;;;4.57;4.17;;;;;;;14.11;85.14;95352.09;4989657;28;20214;-90
2023/05/12 11:08:33;;;;;;;3.80;3.50;;;;;;;14.18;85.77;95352.88;4989761;28;20203;-89
2023/05/12 11:11:00;;;;;;;4.70;4.30;;;;;;;14.15;88.73;95350.69;5006010;28;20261;-88
2023/05/12 11:13:26;;;;;;;3.73;3.43;;;;;;;14.18;86.43;95353.69;5009671;28;20668;-90
2023/05/12 11:15:54;;;;;;;3.72;3.40;;;;;;;14.23;85.55;95349.69;5009392;28;20222;-90
2023/05/12 11:18:29;;;;;;;4.75;3.97;;;;;;;14.27;87.05;95358.63;5009329;28;20733;-90
2023/05/12 11:20:56;;;;;;;3.83;3.40;;;;;;;14.28;88.34;95355.84;5008941;28;20588;-89
2023/05/12 11:23:27;;;;;;;3.58;3.28;;;;;;;14.30;89.18;95356.41;5009155;28;20203;-89
2023/05/12 11:25:59;;;;;;;3.50;3.20;;;;;;;14.31;90.24;95357.22;5009211;28;20725;-89
2023/05/12 11:28:33;;;;;;;3.73;3.27;;;;;;;14.32;91.04;95358.81;5009146;28;20202;-90
2023/05/12 11:31:00;;;;;;;3.53;3.22;;;;;;;14.31;91.02;95358.00;5008675;28;20229;-89
2023/05/12 11:33:27;;;;;;;3.92;3.63;;;;;;;14.31;91.05;95363.19;5008997;28;20587;-89
2023/05/12 11:35:54;;;;;;;6.80;3.87;;;;;;;14.31;91.49;95359.81;5009411;28;20238;-90
2023/05/12 11:38:26;;;;;;;4.07;3.67;;;;;;;14.31;91.08;95360.59;5009592;28;20221;-89
2023/05/12 11:41:01;;;;;;;3.80;3.50;;;;;;;14.32;91.02;95354.44;5008587;28;20211;-90
2023/05/12 11:43:28;;;;;;;4.25;3.85;;;;;;;14.18;92.69;95356.28;5008940;28;20294;-90
2023/05/12 11:45:55;;;;;;;4.30;3.30;;;;;;;14.19;92.07;95362.25;5008791;28;20214;-89
2023/05/12 11:48:22;;;;;;;3.45;3.20;;;;;;;14.23;90.94;95360.06;5008691;28;20203;-90
2023/05/12 11:50:50;;;;;;;4.30;3.37;;;;;;;14.26;91.36;95362.22;5008586;28;20258;-89
2023/05/12 11:53:25;;;;;;;3.47;3.10;;;;;;;14.30;91.28;95358.22;5008539;28;20203;-89
2023/05/12 11:55:54;;;;;;;3.15;2.85;;;;;;;14.32;91.76;95356.22;5008852;28;20225;-89
2023/05/12 12:02:24;;;;;;;3.73;2.97;;;;;;;14.30;92.31;95363.41;5003696;28;20206;-90
2023/05/12 12:04:50;;;;;;;2.47;2.27;;;;;;;14.27;89.36;95364.59;5008696;28;20281;-89
2023/05/12 12:07:28;;;;;;;2.67;2.47;;;;;;;14.25;90.37;95368.38;5007633;28;20198;-89
2023/05/12 15:41:00;;;;;;;4.80;4.40;;;;;;;13.55;91.59;95398.38;5236641;23;20288;-89
2023/05/12 15:47:55;;;;;;;5.07;4.30;;;;;;;13.54;89.97;95402.75;4928707;29;20216;-89
2023/05/12 15:50:55;;;;;;;5.37;4.87;;;;;;;13.59;89.04;95402.97;4862906;29;20666;-89
2023/05/12 16:08:47;;;;;;;5.70;5.20;;;;;;;13.64;89.26;95402.38;4927227;29;20244;-89
2023/05/12 16:27:37;;;;;;;18.20;16.13;;;;;;;13.66;89.53;95397.78;4891395;29;20253;-89
2023/05/12 16:37:49;;;;;;;4.70;4.30;;;;;;;13.58;88.62;95388.44;5213922;23;20243;-89
2023/05/12 16:40:16;;;;;;;4.90;4.50;;;;;;;13.55;89.64;95399.16;4953375;28;20235;-89
2023/05/12 16:42:46;;;;;;;4.23;3.83;;;;;;;13.58;89.72;95396.19;4943086;28;20304;-89
2023/05/12 16:45:23;;;;;;;4.50;4.10;;;;;;;13.61;90.43;95395.00;4944487;28;20208;-90
2023/05/12 16:48:03;;;;;;;3.90;3.50;;;;;;;13.53;90.40;95395.97;4948751;29;20189;-90
2023/05/12 16:50:32;;;;;;;3.70;3.40;;;;;;;13.54;89.74;95395.00;4949332;28;20212;-90
2023/05/12 16:53:00;;;;;;;3.50;3.20;;;;;;;13.46;90.39;95402.97;4950397;28;20295;-90
2023/05/12 16:55:27;;;;;;;3.90;3.53;;;;;;;13.43;90.35;95405.94;4947195;28;20216;-90
2023/05/12 16:57:55;;;;;;;4.23;3.23;;;;;;;13.38;90.90;95403.16;4951192;28;20197;-90
2023/05/12 17:00:21;;;;;;;3.97;3.40;;;;;;;13.31;91.50;95403.13;4951907;28;20276;-89